Time;durP1;ratioP1;P1;durP2;ratioP2;P2;SDS_P1;SDS_P2;PMS_P1;PMS_P2;Temp;Humidity;BMP_temperature;BMP_pressure;BME280_temperature;BME280_humidity;BME280_pressure;Samples;Min_cycle;Max_cycle;Signal;HPM_P1;HPM_P2
2023/03/06 00:00:28;;;;;;;;;;;;;;;7.01;72.69;100671.38;7356626;19;19930;-60
2023/03/06 00:02:55;;;;;;;;;;;;;;;7.02;73.00;100670.38;7354794;19;19926;-61
2023/03/06 00:05:22;;;;;;;;;;;;;;;6.98;72.84;100666.41;7358307;19;20312;-63
2023/03/06 00:07:49;;;;;;;;;;;;;;;6.98;73.21;100677.69;7358953;19;19933;-66
2023/03/06 00:10:18;;;;;;;;;;;;;;;6.96;73.13;100669.13;7356975;19;19927;-60
2023/03/06 00:12:45;;;;;;;;;;;;;;;6.96;73.55;100669.13;7357286;19;19914;-59
2023/03/06 00:15:12;;;;;;;;;;;;;;;6.96;73.32;100665.72;7358320;19;20623;-59
2023/03/06 00:17:39;;;;;;;;;;;;;;;6.97;73.22;100665.56;7358925;19;20713;-59
2023/03/06 00:20:06;;;;;;;;;;;;;;;6.96;73.02;100665.72;7363677;19;19927;-60
2023/03/06 00:22:33;;;;;;;;;;;;;;;6.95;73.20;100664.88;7361265;19;19914;-58
2023/03/06 00:25:01;;;;;;;;;;;;;;;6.94;73.46;100663.22;7363254;19;19946;-61
2023/03/06 00:27:29;;;;;;;;;;;;;;;6.94;73.18;100654.56;7359692;19;19923;-60
2023/03/06 00:29:56;;;;;;;;;;;;;;;6.93;73.54;100651.09;7355182;19;20249;-60
2023/03/06 00:32:24;;;;;;;;;;;;;;;6.91;73.74;100650.41;7356137;19;19922;-60
2023/03/06 00:34:51;;;;;;;;;;;;;;;6.89;73.80;100641.88;7358597;19;20350;-60
2023/03/06 00:37:19;;;;;;;;;;;;;;;6.91;74.18;100645.16;7360079;19;19919;-55
2023/03/06 00:39:46;;;;;;;;;;;;;;;6.91;74.09;100634.72;7357651;19;19926;-58
2023/03/06 00:42:13;;;;;;;;;;;;;;;6.92;73.64;100635.53;7359152;19;19923;-59
2023/03/06 00:44:40;;;;;;;;;;;;;;;6.92;73.91;100646.84;7358797;19;19915;-58
2023/03/06 00:47:07;;;;;;;;;;;;;;;6.94;73.95;100631.84;7359200;19;20255;-54
2023/03/06 00:49:34;;;;;;;;;;;;;;;6.96;74.30;100636.94;7356421;19;19923;-55
2023/03/06 00:52:01;;;;;;;;;;;;;;;6.92;73.96;100632.94;7356924;19;19938;-59
2023/03/06 00:54:28;;;;;;;;;;;;;;;6.90;73.76;100632.25;7359340;19;19919;-59
2023/03/06 00:56:54;;;;;;;;;;;;;;;6.91;73.81;100620.84;7359645;19;19926;-59
2023/03/06 00:59:22;;;;;;;;;;;;;;;6.90;73.91;100629.63;7357919;19;19919;-59
2023/03/06 01:01:53;;;;;;;;;;;;;;;6.90;74.67;100621.78;7353012;19;20352;-58
2023/03/06 01:04:20;;;;;;;;;;;;;;;6.86;75.19;100624.66;7360761;19;19922;-61
2023/03/06 01:06:47;;;;;;;;;;;;;;;6.81;74.81;100616.38;7359663;19;19959;-59
2023/03/06 01:09:14;;;;;;;;;;;;;;;6.85;74.76;100620.41;7359241;19;19923;-58
2023/03/06 01:11:40;;;;;;;;;;;;;;;6.85;74.32;100615.19;7357785;19;19926;-56
2023/03/06 01:14:07;;;;;;;;;;;;;;;6.86;74.59;100614.19;7358942;19;19923;-60
2023/03/06 01:16:34;;;;;;;;;;;;;;;6.89;74.75;100600.03;7358627;19;19926;-59
2023/03/06 01:19:01;;;;;;;;;;;;;;;6.92;74.70;100607.59;7356989;19;19919;-57
2023/03/06 01:21:28;;;;;;;;;;;;;;;6.94;74.76;100610.09;7358753;19;19925;-57
2023/03/06 01:23:55;;;;;;;;;;;;;;;6.95;75.05;100614.38;7356898;19;19927;-56
2023/03/06 01:26:22;;;;;;;;;;;;;;;6.94;74.64;100608.31;7357827;19;19922;-55
2023/03/06 01:28:49;;;;;;;;;;;;;;;6.94;74.81;100602.25;7356377;19;19923;-59
2023/03/06 01:31:16;;;;;;;;;;;;;;;6.95;75.02;100602.13;7358667;19;19922;-58
2023/03/06 01:33:44;;;;;;;;;;;;;;;6.98;74.82;100598.41;7356363;19;19926;-58
2023/03/06 01:36:11;;;;;;;;;;;;;;;6.97;74.88;100594.13;7358039;19;19918;-57
2023/03/06 01:38:38;;;;;;;;;;;;;;;6.93;74.73;100593.56;7355332;19;20782;-58
2023/03/06 01:41:05;;;;;;;;;;;;;;;6.91;75.07;100579.00;7357282;19;19923;-57
2023/03/06 01:43:34;;;;;;;;;;;;;;;6.87;75.54;100583.66;7358123;19;19937;-57
2023/03/06 01:46:04;;;;;;;;;;;;;;;6.82;75.34;100581.44;7356721;19;19923;-60
2023/03/06 01:48:31;;;;;;;;;;;;;;;6.81;75.24;100584.19;7354469;19;19918;-59
2023/03/06 01:50:58;;;;;;;;;;;;;;;6.78;75.11;100581.84;7359228;19;19918;-59
2023/03/06 01:53:25;;;;;;;;;;;;;;;6.75;75.18;100575.13;7357736;19;19922;-58
2023/03/06 01:55:52;;;;;;;;;;;;;;;6.74;75.62;100578.69;7358821;19;19930;-57
2023/03/06 01:58:19;;;;;;;;;;;;;;;6.73;75.73;100573.59;7355489;19;19918;-57
2023/03/06 02:00:46;;;;;;;;;;;;;;;6.71;75.67;100573.72;7355594;19;20244;-61
2023/03/06 02:03:14;;;;;;;;;;;;;;;6.71;75.71;100568.47;7356540;19;19949;-59
2023/03/06 02:05:42;;;;;;;;;;;;;;;6.70;75.91;100569.47;7359292;19;19926;-58
2023/03/06 02:08:10;;;;;;;;;;;;;;;6.69;76.10;100569.59;7354750;19;20257;-60
2023/03/06 02:10:39;;;;;;;;;;;;;;;6.71;76.02;100570.25;7359408;19;20767;-60
2023/03/06 02:13:06;;;;;;;;;;;;;;;6.70;76.23;100572.06;7354115;19;20523;-59
2023/03/06 02:15:33;;;;;;;;;;;;;;;6.66;76.22;100565.44;7356980;19;21437;-60
2023/03/06 02:18:00;;;;;;;;;;;;;;;6.64;76.39;100559.53;7353665;19;19937;-56
2023/03/06 02:20:30;;;;;;;;;;;;;;;6.63;76.72;100557.06;7358442;19;19927;-61
2023/03/06 02:23:00;;;;;;;;;;;;;;;6.60;76.53;100552.09;7357747;19;19922;-60
2023/03/06 02:25:30;;;;;;;;;;;;;;;6.55;76.88;100552.50;7364040;19;19962;-57
2023/03/06 02:27:57;;;;;;;;;;;;;;;6.51;76.87;100553.72;7365011;19;19911;-54
2023/03/06 02:30:25;;;;;;;;;;;;;;;6.51;77.15;100552.88;7359754;19;20553;-59
2023/03/06 02:32:52;;;;;;;;;;;;;;;6.50;77.19;100546.03;7361142;19;19918;-58
2023/03/06 02:35:20;;;;;;;;;;;;;;;6.49;77.16;100541.75;7364587;19;19929;-56
2023/03/06 02:37:48;;;;;;;;;;;;;;;6.49;77.53;100545.19;7362604;19;20160;-58
2023/03/06 02:40:16;;;;;;;;;;;;;;;6.47;77.45;100534.03;7357211;19;19926;-61
2023/03/06 02:42:45;;;;;;;;;;;;;;;6.44;77.47;100535.16;7363629;19;19986;-58
2023/03/06 02:45:14;;;;;;;;;;;;;;;6.42;77.52;100533.63;7362247;19;20326;-59
2023/03/06 02:47:40;;;;;;;;;;;;;;;6.42;77.48;100533.63;7359824;19;20184;-59
2023/03/06 02:50:08;;;;;;;;;;;;;;;6.39;77.63;100533.91;7360084;19;19954;-60
2023/03/06 02:52:35;;;;;;;;;;;;;;;6.38;77.49;100532.22;7361439;19;19918;-58
2023/03/06 02:55:02;;;;;;;;;;;;;;;6.36;78.05;100528.91;7362454;19;19919;-60
2023/03/06 02:57:29;;;;;;;;;;;;;;;6.34;77.98;100530.84;7360634;19;19918;-60
2023/03/06 02:59:56;;;;;;;;;;;;;;;6.31;77.80;100526.72;7362553;19;19941;-58
2023/03/06 03:02:23;;;;;;;;;;;;;;;6.30;78.27;100519.00;7360202;19;19933;-59
2023/03/06 03:04:50;;;;;;;;;;;;;;;6.27;77.94;100517.50;7363853;19;19923;-60
2023/03/06 03:07:17;;;;;;;;;;;;;;;6.24;78.14;100509.09;7361312;19;19926;-60
2023/03/06 03:09:44;;;;;;;;;;;;;;;6.22;78.47;100511.84;7359567;19;20273;-58
2023/03/06 03:12:10;;;;;;;;;;;;;;;6.22;78.68;100511.84;7363078;19;19923;-57
2023/03/06 03:14:37;;;;;;;;;;;;;;;6.22;78.65;100508.41;7363099;19;19952;-59
2023/03/06 03:17:04;;;;;;;;;;;;;;;6.21;78.93;100504.94;7359276;19;19945;-58
2023/03/06 03:19:31;;;;;;;;;;;;;;;6.19;78.58;100509.50;7364123;19;19945;-58
2023/03/06 03:21:58;;;;;;;;;;;;;;;6.19;78.63;100498.22;7368845;19;19949;-59
2023/03/06 03:24:25;;;;;;;;;;;;;;;6.17;78.63;100492.28;7371741;19;19927;-57
2023/03/06 03:26:52;;;;;;;;;;;;;;;6.13;78.67;100494.34;7362397;19;20404;-57
2023/03/06 03:29:19;;;;;;;;;;;;;;;6.10;79.28;100485.94;7362439;19;19919;-60
2023/03/06 03:31:46;;;;;;;;;;;;;;;6.10;79.56;100486.78;7361551;19;19919;-57
2023/03/06 03:34:13;;;;;;;;;;;;;;;6.13;79.64;100490.91;7362899;19;20405;-59
2023/03/06 03:36:40;;;;;;;;;;;;;;;6.13;79.43;100486.53;7361933;19;19923;-55
2023/03/06 03:39:07;;;;;;;;;;;;;;;6.11;79.45;100480.59;7362932;19;19930;-59
2023/03/06 03:41:34;;;;;;;;;;;;;;;6.10;79.48;100476.31;7359998;19;19919;-59
2023/03/06 03:44:01;;;;;;;;;;;;;;;6.08;79.23;100472.22;7360800;19;20243;-62
2023/03/06 03:46:28;;;;;;;;;;;;;;;6.07;80.09;100465.31;7357268;19;20771;-59
2023/03/06 03:48:55;;;;;;;;;;;;;;;6.05;80.17;100472.47;7358776;19;19923;-62
2023/03/06 03:51:22;;;;;;;;;;;;;;;6.05;80.02;100462.84;7359625;19;20190;-58
2023/03/06 03:53:49;;;;;;;;;;;;;;;6.04;80.05;100460.38;7362565;19;19976;-60
2023/03/06 03:56:16;;;;;;;;;;;;;;;6.04;80.63;100476.06;7363542;19;19923;-59
2023/03/06 03:58:43;;;;;;;;;;;;;;;6.03;80.67;100477.84;7359820;19;20340;-58
2023/03/06 04:01:10;;;;;;;;;;;;;;;6.01;81.10;100467.50;7357855;19;20340;-58
2023/03/06 04:03:37;;;;;;;;;;;;;;;5.97;81.06;100460.91;7358383;19;19945;-57
2023/03/06 04:06:04;;;;;;;;;;;;;;;5.96;80.60;100461.03;7362757;19;19923;-60
2023/03/06 04:08:31;;;;;;;;;;;;;;;6.00;80.67;100455.41;7362451;19;19926;-56
2023/03/06 04:10:58;;;;;;;;;;;;;;;6.01;81.56;100451.00;7359498;19;19923;-58
2023/03/06 04:13:25;;;;;;;;;;;;;;;6.03;82.09;100454.34;7362666;19;19926;-56
2023/03/06 04:15:53;;;;;;;;;;;;;;;6.05;81.96;100446.34;7360431;19;19994;-58
2023/03/06 04:18:21;;;;;;;;;;;;;;;6.06;81.05;100451.44;7360502;19;19990;-59
2023/03/06 04:20:48;;;;;;;;;;;;;;;6.09;81.22;100445.97;7359397;19;20477;-60
2023/03/06 04:23:16;;;;;;;;;;;;;;;6.08;80.63;100439.09;7358867;19;19926;-59
2023/03/06 04:25:43;;;;;;;;;;;;;;;6.08;80.71;100423.41;7359746;19;20014;-59
2023/03/06 04:28:10;;;;;;;;;;;;;;;6.08;80.49;100425.22;7358866;19;19919;-56
2023/03/06 04:30:37;;;;;;;;;;;;;;;6.05;80.17;100420.22;7357257;19;19923;-57
2023/03/06 04:33:04;;;;;;;;;;;;;;;6.04;80.19;100416.00;7360601;19;19923;-56
2023/03/06 04:35:31;;;;;;;;;;;;;;;6.01;80.32;100423.13;7360466;19;19923;-60
2023/03/06 04:37:58;;;;;;;;;;;;;;;5.97;80.34;100413.91;7358685;19;19918;-58
2023/03/06 04:40:27;;;;;;;;;;;;;;;5.93;80.74;100406.47;7362553;19;19930;-57
2023/03/06 04:42:55;;;;;;;;;;;;;;;5.97;82.64;100397.41;7359115;19;19959;-58
2023/03/06 04:45:24;;;;;;;;;;;;;;;5.97;83.41;100400.03;7358674;19;19911;-58
2023/03/06 04:47:56;;;;;;;;;;;;;;;5.95;83.39;100394.94;7355089;19;19922;-58
2023/03/06 04:50:25;;;;;;;;;;;;;;;5.93;83.19;100396.03;7359846;19;19936;-58
2023/03/06 04:52:53;;;;;;;;;;;;;;;5.88;82.56;100391.22;7355153;19;19926;-52
2023/03/06 04:55:21;;;;;;;;;;;;;;;5.83;82.21;100395.16;7359936;19;19927;-58
2023/03/06 04:57:48;;;;;;;;;;;;;;;5.81;82.07;100387.44;7360950;19;20351;-58
2023/03/06 05:00:18;;;;;;;;;;;;;;;5.84;83.90;100389.78;7359338;19;20353;-60
2023/03/06 05:02:47;;;;;;;;;;;;;;;5.84;84.20;100391.59;7356220;19;20020;-59
2023/03/06 05:05:17;;;;;;;;;;;;;;;5.81;83.81;100384.00;7357789;19;19926;-59
2023/03/06 05:07:45;;;;;;;;;;;;;;;5.81;83.98;100395.28;7358907;19;20577;-58
2023/03/06 05:10:13;;;;;;;;;;;;;;;5.80;83.65;100400.63;7358423;19;19923;-55
2023/03/06 05:12:41;;;;;;;;;;;;;;;5.78;83.66;100400.78;7358906;19;20232;-60
2023/03/06 05:15:10;;;;;;;;;;;;;;;5.75;83.84;100395.81;7358074;19;19914;-59
2023/03/06 05:17:42;;;;;;;;;;;;;;;5.70;83.51;100391.94;7354718;19;19923;-57
2023/03/06 05:20:10;;;;;;;;;;;;;;;5.68;83.47;100386.88;7359705;19;20265;-61
2023/03/06 05:22:38;;;;;;;;;;;;;;;5.68;83.90;100384.25;7359543;19;19926;-59
2023/03/06 05:25:06;;;;;;;;;;;;;;;5.67;83.66;100392.22;7359461;19;21544;-60
2023/03/06 05:27:34;;;;;;;;;;;;;;;5.67;83.15;100389.59;7358076;19;19922;-58
2023/03/06 05:30:02;;;;;;;;;;;;;;;5.66;82.75;100388.78;7357541;19;19942;-55
2023/03/06 05:32:30;;;;;;;;;;;;;;;5.67;82.45;100385.22;7357123;19;19929;-58
2023/03/06 05:35:01;;;;;;;;;;;;;;;5.68;82.07;100380.81;7358548;19;20186;-60
2023/03/06 05:37:29;;;;;;;;;;;;;;;5.71;83.10;100376.16;7357322;19;19978;-60
2023/03/06 05:39:56;;;;;;;;;;;;;;;5.73;84.14;100371.66;7358006;19;19933;-58
2023/03/06 05:42:24;;;;;;;;;;;;;;;5.73;83.72;100371.66;7359265;19;20223;-58
2023/03/06 05:44:54;;;;;;;;;;;;;;;5.68;83.37;100362.56;7355967;19;20018;-61
2023/03/06 05:47:22;;;;;;;;;;;;;;;5.64;83.26;100363.78;7358409;19;19923;-57
2023/03/06 05:49:49;;;;;;;;;;;;;;;5.68;84.80;100359.94;7357964;19;20263;-60
2023/03/06 05:52:16;;;;;;;;;;;;;;;5.67;84.61;100347.84;7358180;19;20301;-59
2023/03/06 05:54:48;;;;;;;;;;;;;;;5.67;83.77;100346.06;7357961;19;20097;-59
2023/03/06 05:57:18;;;;;;;;;;;;;;;5.70;84.08;100347.56;7360096;19;19937;-60
2023/03/06 05:59:46;;;;;;;;;;;;;;;5.70;83.65;100345.78;7370348;19;19914;-57
2023/03/06 06:02:14;;;;;;;;;;;;;;;5.75;84.03;100348.81;7370094;19;20473;-62
2023/03/06 06:04:41;;;;;;;;;;;;;;;5.75;83.28;100341.00;7373015;19;19915;-58
2023/03/06 06:07:12;;;;;;;;;;;;;;;5.75;83.11;100342.78;7370789;19;19930;-60
2023/03/06 06:09:44;;;;;;;;;;;;;;;5.80;84.25;100336.19;7369497;19;20186;-60
2023/03/06 06:12:12;;;;;;;;;;;;;;;5.83;84.59;100332.50;7368472;19;19953;-60
2023/03/06 06:14:40;;;;;;;;;;;;;;;5.83;83.22;100335.13;7372044;19;20221;-59
2023/03/06 06:17:08;;;;;;;;;;;;;;;5.81;82.90;100340.47;7367906;19;20546;-58
2023/03/06 06:19:37;;;;;;;;;;;;;;;5.85;84.05;100347.06;7372251;19;19911;-58
2023/03/06 06:22:07;;;;;;;;;;;;;;;5.85;83.81;100339.22;7370626;19;19974;-57
2023/03/06 06:24:34;;;;;;;;;;;;;;;5.87;83.46;100336.53;7370413;19;19919;-58
2023/03/06 06:27:07;;;;;;;;;;;;;;;5.92;83.95;100342.16;7367693;19;20009;-61
2023/03/06 06:29:36;;;;;;;;;;;;;;;5.94;84.21;100340.25;7369452;19;19918;-59
2023/03/06 06:32:03;;;;;;;;;;;;;;;5.98;84.37;100333.81;7369805;19;19918;-59
2023/03/06 06:34:32;;;;;;;;;;;;;;;6.01;84.19;100341.34;7373031;19;19955;-60
2023/03/06 06:37:00;;;;;;;;;;;;;;;5.98;84.00;100339.03;7370292;19;19919;-58
2023/03/06 06:39:29;;;;;;;;;;;;;;;6.01;84.14;100334.34;7371660;19;19923;-61
2023/03/06 06:41:58;;;;;;;;;;;;;;;6.07;85.19;100338.22;7369900;19;19931;-61
2023/03/06 06:44:45;;;;;;;;;;;;;;;6.11;85.04;100325.69;7369377;19;19919;-58
2023/03/06 06:47:13;;;;;;;;;;;;;;;6.14;85.19;100321.03;7369024;19;19942;-58
2023/03/06 06:49:51;;;;;;;;;;;;;;;6.18;85.39;100316.34;7369502;19;19934;-60
2023/03/06 06:52:20;;;;;;;;;;;;;;;6.24;86.80;100321.03;7370399;19;20419;-59
2023/03/06 06:54:48;;;;;;;;;;;;;;;6.22;86.05;100318.56;7370104;19;19925;-59
2023/03/06 06:57:16;;;;;;;;;;;;;;;6.21;86.05;100309.06;7371107;19;19935;-58
2023/03/06 06:59:44;;;;;;;;;;;;;;;6.25;86.88;100309.59;7369192;19;20046;-59
2023/03/06 07:02:20;;;;;;;;;;;;;;;6.29;86.74;100304.00;7361670;19;19923;-58
2023/03/06 07:04:49;;;;;;;;;;;;;;;6.30;86.85;100299.56;7369963;19;19931;-59
2023/03/06 07:07:33;;;;;;;;;;;;;;;6.32;87.77;100306.31;7368904;19;20228;-60
2023/03/06 07:10:02;;;;;;;;;;;;;;;6.38;88.66;100303.16;7363608;19;19975;-60
2023/03/06 07:12:40;;;;;;;;;;;;;;;6.40;88.75;100300.38;7359733;19;19919;-60
2023/03/06 07:15:11;;;;;;;;;;;;;;;6.41;88.59;100313.31;7363117;19;20442;-60
2023/03/06 07:17:45;;;;;;;;;;;;;;;6.41;88.72;100300.25;7361855;19;20460;-59
2023/03/06 07:20:16;;;;;;;;;;;;;;;6.41;88.74;100295.03;7362963;19;19926;-57
2023/03/06 07:22:45;;;;;;;;;;;;;;;6.41;88.69;100287.19;7360656;19;20225;-61
2023/03/06 07:25:19;;;;;;;;;;;;;;;6.42;88.83;100285.41;7362609;19;20030;-60
2023/03/06 07:27:49;;;;;;;;;;;;;;;6.41;88.57;100291.59;7360927;19;19922;-56
2023/03/06 07:30:21;;;;;;;;;;;;;;;6.42;88.31;100294.06;7360625;19;19915;-58
2023/03/06 07:32:52;;;;;;;;;;;;;;;6.43;88.46;100300.13;7360510;19;19919;-59
2023/03/06 07:35:32;;;;;;;;;;;;;;;6.45;88.77;100292.94;7357601;19;19921;-58
2023/03/06 07:38:24;;;;;;;;;;;;;;;6.49;88.59;100290.91;7359226;19;19911;-59
2023/03/06 07:40:57;;;;;;;;;;;;;;;6.49;87.82;100290.91;7360125;19;19930;-58
2023/03/06 07:43:30;;;;;;;;;;;;;;;6.49;88.23;100289.13;7360556;19;20347;-58
2023/03/06 07:46:13;;;;;;;;;;;;;;;6.53;89.24;100281.81;7360896;19;19930;-59
2023/03/06 07:48:44;;;;;;;;;;;;;;;6.55;89.41;100283.34;7361279;19;20278;-61
2023/03/06 07:51:17;;;;;;;;;;;;;;;6.55;88.82;100278.13;7358763;19;19935;-55
2023/03/06 07:53:47;;;;;;;;;;;;;;;6.57;88.90;100275.34;7364329;19;19918;-59
2023/03/06 07:56:22;;;;;;;;;;;;;;;6.61;88.91;100271.47;7362302;19;19923;-58
2023/03/06 07:58:51;;;;;;;;;;;;;;;6.60;88.12;100275.91;7362596;19;19942;-58
2023/03/06 08:01:24;;;;;;;;;;;;;;;6.51;87.38;100270.66;7360279;19;19919;-57
2023/03/06 08:04:03;;;;;;;;;;;;;;;6.49;87.31;100270.00;7359037;19;19923;-61
2023/03/06 08:06:41;;;;;;;;;;;;;;;6.51;87.85;100257.59;7359004;19;19942;-57
2023/03/06 08:09:18;;;;;;;;;;;;;;;6.57;88.04;100255.25;7362033;19;20308;-60
2023/03/06 08:11:53;;;;;;;;;;;;;;;6.60;88.18;100257.59;7359399;19;19960;-61
2023/03/06 08:14:49;;;;;;;;;;;;;;;6.67;88.37;100255.22;7359576;19;19933;-61
2023/03/06 08:17:32;;;;;;;;;;;;;;;6.73;88.34;100246.81;7358569;19;20002;-58
2023/03/06 08:20:14;;;;;;;;;;;;;;;6.79;88.55;100247.09;7355575;19;19959;-59
2023/03/06 08:22:52;;;;;;;;;;;;;;;6.82;88.18;100251.19;7357420;19;19930;-57
2023/03/06 08:25:24;;;;;;;;;;;;;;;6.88;87.54;100250.63;7361345;19;20537;-56
2023/03/06 08:28:00;;;;;;;;;;;;;;;6.94;87.52;100252.66;7360738;19;19942;-59
2023/03/06 08:30:38;;;;;;;;;;;;;;;7.00;87.82;100249.47;7355379;19;19922;-60
2023/03/06 08:33:37;;;;;;;;;;;;;;;7.05;87.82;100252.50;7359440;19;19914;-62
2023/03/06 08:36:27;;;;;;;;;;;;;;;7.07;86.83;100241.88;7358826;19;19925;-60
2023/03/06 08:39:04;;;;;;;;;;;;;;;7.15;87.26;100237.56;7359487;19;19929;-60
2023/03/06 08:41:41;;;;;;;;;;;;;;;7.25;87.60;100238.34;7290122;19;19925;-59
2023/03/06 08:44:17;;;;;;;;;;;;;;;7.31;87.19;100235.13;7347710;19;20188;-59
2023/03/06 08:46:50;;;;;;;;;;;;;;;7.34;86.52;100230.56;7348742;19;19925;-58
2023/03/06 08:49:23;;;;;;;;;;;;;;;7.37;86.01;100233.72;7352799;19;20027;-59
2023/03/06 08:51:59;;;;;;;;;;;;;;;7.42;86.13;100233.28;7350505;19;21446;-60
2023/03/06 08:54:34;;;;;;;;;;;;;;;7.44;85.43;100234.78;7352612;19;20332;-58
2023/03/06 08:57:09;;;;;;;;;;;;;;;7.48;85.80;100243.97;7352572;19;19930;-59
2023/03/06 08:59:41;;;;;;;;;;;;;;;7.53;86.22;100248.78;7352404;19;19974;-58
2023/03/06 09:02:15;;;;;;;;;;;;;;;7.57;86.13;100237.03;7357289;19;19923;-61
2023/03/06 09:04:52;;;;;;;;;;;;;;;7.59;86.25;100241.16;7360929;19;19914;-58
2023/03/06 09:07:22;;;;;;;;;;;;;;;7.66;86.25;100236.16;7357867;19;19977;-57
2023/03/06 09:09:54;;;;;;;;;;;;;;;7.72;85.79;100244.22;7358071;19;19919;-60
2023/03/06 09:12:25;;;;;;;;;;;;;;;7.75;84.69;100230.03;7355082;19;19919;-59
2023/03/06 09:15:23;;;;;;;;;;;;;;;7.88;87.39;100234.88;7356382;19;20657;-60
2023/03/06 09:17:57;;;;;;;;;;;;;;;7.99;87.36;100232.84;7357173;19;19923;-60
2023/03/06 09:20:30;;;;;;;;;;;;;;;8.05;86.45;100228.81;7358781;19;19915;-61
2023/03/06 09:22:58;;;;;;;;;;;;;;;8.11;85.43;100225.59;7344118;19;19918;-57
2023/03/06 09:25:37;;;;;;;;;;;;;;;8.14;84.14;100220.84;7348830;19;19945;-59
2023/03/06 09:28:22;;;;;;;;;;;;;;;8.21;84.08;100215.84;7356600;19;20347;-59
2023/03/06 09:33:40;;;;;;;;;;;;;;;8.39;84.42;100214.03;7354663;19;19923;-59
2023/03/06 09:36:17;;;;;;;;;;;;;;;8.49;83.43;100212.13;7358716;19;20254;-59
2023/03/06 09:38:46;;;;;;;;;;;;;;;8.63;82.00;100210.75;7357626;19;19945;-60
2023/03/06 09:41:14;;;;;;;;;;;;;;;8.79;82.18;100204.72;7360418;19;19938;-56
2023/03/06 09:43:50;;;;;;;;;;;;;;;8.91;82.01;100208.72;7354027;19;20269;-58
2023/03/06 09:46:44;;;;;;;;;;;;;;;9.04;81.74;100208.31;7351761;19;19926;-57
2023/03/06 09:49:39;;;;;;;;;;;;;;;9.09;80.85;100196.34;7356718;19;19915;-60
2023/03/06 09:52:39;;;;;;;;;;;;;;;9.11;80.26;100196.19;7351988;19;19926;-60
2023/03/06 09:55:19;;;;;;;;;;;;;;;9.14;80.86;100188.84;7357517;19;19922;-57
2023/03/06 09:57:48;;;;;;;;;;;;;;;9.15;80.44;100192.25;7355280;19;19915;-58
2023/03/06 10:00:22;;;;;;;;;;;;;;;9.19;80.95;100185.72;7359463;19;19998;-59
2023/03/06 10:02:55;;;;;;;;;;;;;;;9.24;81.41;100181.63;7356678;19;19933;-57
2023/03/06 10:05:25;;;;;;;;;;;;;;;9.31;81.07;100182.63;7360101;19;20422;-57
2023/03/06 10:07:57;;;;;;;;;;;;;;;9.37;80.08;100179.38;7357753;19;19940;-62
2023/03/06 10:10:27;;;;;;;;;;;;;;;9.45;80.01;100178.53;7356905;19;19918;-59
2023/03/06 10:13:01;;;;;;;;;;;;;;;9.53;79.89;100181.19;7355704;19;19923;-58
2023/03/06 10:15:32;;;;;;;;;;;;;;;9.60;79.40;100173.50;7354000;19;21753;-56
2023/03/06 10:18:00;;;;;;;;;;;;;;;9.67;79.45;100175.28;7357527;19;21799;-58
2023/03/06 10:20:35;;;;;;;;;;;;;;;9.74;79.58;100171.03;7357258;19;20685;-59
2023/03/06 10:23:11;;;;;;;;;;;;;;;9.83;79.73;100164.81;7286780;19;19926;-58
2023/03/06 10:25:38;;;;;;;;;;;;;;;9.93;79.12;100167.25;7357907;19;19934;-59
2023/03/06 10:28:08;;;;;;;;;;;;;;;9.98;77.86;100169.38;7356096;19;19923;-54
2023/03/06 10:30:37;;;;;;;;;;;;;;;10.03;77.48;100172.34;7354398;19;19933;-59
2023/03/06 10:33:06;;;;;;;;;;;;;;;10.02;77.00;100170.69;7354145;19;19927;-59
2023/03/06 10:35:36;;;;;;;;;;;;;;;9.99;76.85;100163.97;7358417;19;20020;-60
2023/03/06 10:38:12;;;;;;;;;;;;;;;10.00;77.10;100164.81;7357595;19;19911;-58
2023/03/06 10:40:42;;;;;;;;;;;;;;;10.05;78.42;100154.59;7356698;19;19952;-59
2023/03/06 10:43:10;;;;;;;;;;;;;;;10.11;77.67;100152.13;7356439;19;19907;-56
2023/03/06 10:45:41;;;;;;;;;;;;;;;10.12;76.85;100148.50;7347515;19;19930;-59
2023/03/06 10:48:22;;;;;;;;;;;;;;;10.04;76.77;100139.81;7365007;19;20027;-59
2023/03/06 10:50:50;;;;;;;;;;;;;;;10.00;77.52;100136.72;7360826;19;19919;-59
2023/03/06 10:53:19;;;;;;;;;;;;;;;10.00;77.51;100146.41;7356442;19;19978;-57
2023/03/06 10:55:49;;;;;;;;;;;;;;;10.01;78.20;100137.50;7360562;19;19922;-59
2023/03/06 10:58:18;;;;;;;;;;;;;;;10.03;77.99;100125.84;7362381;19;19918;-59
2023/03/06 11:00:45;;;;;;;;;;;;;;;10.06;77.75;100132.56;7360496;19;19913;-57
2023/03/06 11:03:16;;;;;;;;;;;;;;;10.10;77.90;100133.91;7360284;19;20656;-58
2023/03/06 11:05:52;;;;;;;;;;;;;;;10.15;77.94;100139.47;7340840;19;19990;-59
2023/03/06 11:08:21;;;;;;;;;;;;;;;10.19;77.99;100136.38;7361177;19;19922;-59
2023/03/06 11:10:51;;;;;;;;;;;;;;;10.23;77.87;100126.34;7360142;19;19982;-61
2023/03/06 11:13:20;;;;;;;;;;;;;;;10.24;77.41;100128.81;7363576;19;20386;-58
2023/03/06 11:15:54;;;;;;;;;;;;;;;10.27;77.81;100130.25;7359831;19;20583;-60
2023/03/06 11:18:26;;;;;;;;;;;;;;;10.33;77.20;100129.59;7361158;19;19926;-60
2023/03/06 11:20:54;;;;;;;;;;;;;;;10.34;76.39;100120.72;7359956;19;20823;-59
2023/03/06 11:23:28;;;;;;;;;;;;;;;10.43;76.96;100121.53;7362289;19;20262;-59
2023/03/06 11:25:58;;;;;;;;;;;;;;;10.53;76.61;100115.06;7360349;19;20367;-57
2023/03/06 11:28:28;;;;;;;;;;;;;;;10.64;76.56;100116.50;7358793;19;19926;-60
2023/03/06 11:30:59;;;;;;;;;;;;;;;10.75;75.60;100110.88;7357785;19;19951;-58
2023/03/06 11:33:27;;;;;;;;;;;;;;;10.83;75.21;100105.56;7359022;19;19930;-59
2023/03/06 11:35:56;;;;;;;;;;;;;;;10.81;74.66;100107.56;7359795;19;19941;-59
2023/03/06 11:38:37;;;;;;;;;;;;;;;10.86;74.60;100107.88;7361296;19;19945;-58
2023/03/06 11:41:07;;;;;;;;;;;;;;;10.89;74.99;100094.34;7360850;19;19922;-61
2023/03/06 11:43:48;;;;;;;;;;;;;;;10.92;74.88;100107.16;7360791;19;19999;-59
2023/03/06 11:46:17;;;;;;;;;;;;;;;10.92;75.27;100090.56;7356514;19;19930;-60
2023/03/06 11:48:47;;;;;;;;;;;;;;;10.91;74.39;100091.56;7357368;19;19956;-61
2023/03/06 11:51:18;;;;;;;;;;;;;;;10.89;74.08;100088.25;7358374;19;19926;-61
2023/03/06 11:53:45;;;;;;;;;;;;;;;10.91;74.18;100091.56;7358357;19;19922;-59
2023/03/06 11:56:16;;;;;;;;;;;;;;;10.89;74.24;100075.94;7359739;19;19926;-58
2023/03/06 11:58:46;;;;;;;;;;;;;;;10.89;73.64;100077.75;7359029;19;20549;-58
2023/03/06 12:01:13;;;;;;;;;;;;;;;10.87;73.53;100079.75;7358176;19;20246;-59
2023/03/06 12:03:41;;;;;;;;;;;;;;;10.93;74.24;100065.88;7359689;19;19919;-58
2023/03/06 12:06:16;;;;;;;;;;;;;;;10.98;74.02;100064.34;7358051;19;20376;-66
2023/03/06 12:08:49;;;;;;;;;;;;;;;11.04;73.41;100061.03;7360247;19;19997;-58
2023/03/06 12:11:19;;;;;;;;;;;;;;;11.05;72.87;100053.94;7359999;19;19961;-62
2023/03/06 12:13:53;;;;;;;;;;;;;;;11.06;73.04;100050.34;7360262;19;19926;-59
2023/03/06 12:16:21;;;;;;;;;;;;;;;11.06;72.56;100052.97;7359444;19;19911;-60
2023/03/06 12:18:51;;;;;;;;;;;;;;;11.03;72.83;100046.22;7359141;19;19979;-59
2023/03/06 12:21:21;;;;;;;;;;;;;;;10.97;72.35;100049.53;7359543;19;20498;-59
2023/03/06 12:23:51;;;;;;;;;;;;;;;10.95;72.08;100048.09;7359894;19;20343;-57
2023/03/06 12:26:21;;;;;;;;;;;;;;;10.98;72.28;100037.22;7359036;19;19957;-58
2023/03/06 12:28:51;;;;;;;;;;;;;;;11.06;72.39;100029.28;7359783;19;19918;-61
2023/03/06 12:31:27;;;;;;;;;;;;;;;11.10;71.79;100031.38;7360328;19;20562;-58
2023/03/06 12:33:57;;;;;;;;;;;;;;;11.20;71.84;100032.94;7357737;19;20291;-56
2023/03/06 12:36:24;;;;;;;;;;;;;;;11.30;71.40;100023.00;7360749;19;19923;-58
2023/03/06 12:38:57;;;;;;;;;;;;;;;11.36;71.70;100024.91;7359399;19;20002;-60
2023/03/06 12:41:27;;;;;;;;;;;;;;;11.38;70.57;100026.38;7362052;19;19926;-59
2023/03/06 12:43:57;;;;;;;;;;;;;;;11.39;70.75;100009.56;7356182;19;19919;-57
2023/03/06 12:46:25;;;;;;;;;;;;;;;11.39;69.75;100009.56;7356800;19;19926;-58
2023/03/06 12:48:55;;;;;;;;;;;;;;;11.40;69.98;100011.22;7354344;19;19923;-55
2023/03/06 12:51:22;;;;;;;;;;;;;;;11.46;70.52;100012.31;7358189;19;20959;-61
2023/03/06 12:53:50;;;;;;;;;;;;;;;11.52;69.47;100001.91;7358878;19;19927;-57
2023/03/06 12:56:18;;;;;;;;;;;;;;;11.58;69.88;99997.69;7358459;19;20977;-57
2023/03/06 12:58:46;;;;;;;;;;;;;;;11.65;68.72;99997.81;7354657;19;20419;-57
2023/03/06 13:01:18;;;;;;;;;;;;;;;11.64;69.15;99983.81;7354754;19;20354;-62
2023/03/06 13:03:48;;;;;;;;;;;;;;;11.64;68.62;99978.53;7357284;19;19922;-59